Time;durP1;ratioP1;P1;durP2;ratioP2;P2;SDS_P1;SDS_P2;PMS_P1;PMS_P2;Temp;Humidity;BMP_temperature;BMP_pressure;BME280_temperature;BME280_humidity;BME280_pressure;Samples;Min_cycle;Max_cycle;Signal;HPM_P1;HPM_P2
2023/05/07 00:00:02;;;;;;;2.50;1.40;;;16.50;61.30;;;;;;4142096;28;20034;-53
2023/05/07 00:02:25;;;;;;;4.97;2.00;;;16.50;61.30;;;;;;4144660;28;20697;-52
2023/05/07 00:04:47;;;;;;;2.83;1.48;;;16.50;61.30;;;;;;4124828;28;20042;-57
2023/05/07 00:07:10;;;;;;;2.88;1.55;;;16.50;61.30;;;;;;4142817;28;20069;-56
2023/05/07 00:09:32;;;;;;;5.40;1.35;;;16.50;61.30;;;;;;4138384;28;20046;-55
2023/05/07 00:11:55;;;;;;;1.52;1.20;;;16.50;61.90;;;;;;4138163;28;20551;-55
2023/05/07 00:14:17;;;;;;;2.88;1.33;;;16.50;61.30;;;;;;4142194;28;20052;-51
2023/05/07 00:16:40;;;;;;;2.50;1.40;;;16.50;61.30;;;;;;4129422;28;20034;-53
2023/05/07 00:19:02;;;;;;;2.22;1.13;;;16.40;61.20;;;;;;4139506;28;20632;-55
2023/05/07 00:21:26;;;;;;;2.08;1.10;;;16.40;61.20;;;;;;4144741;28;20044;-54
2023/05/07 00:23:48;;;;;;;3.17;1.30;;;16.40;61.00;;;;;;4137807;28;20038;-53
2023/05/07 00:26:11;;;;;;;1.80;1.23;;;16.40;61.20;;;;;;4143918;28;20041;-55
2023/05/07 00:28:33;;;;;;;2.00;1.20;;;16.40;61.30;;;;;;4143889;28;20494;-50
2023/05/07 00:30:56;;;;;;;2.65;1.20;;;16.40;61.30;;;;;;4143188;28;20107;-53
2023/05/07 00:33:20;;;;;;;3.30;1.40;;;16.40;61.30;;;;;;4133305;28;20038;-53
2023/05/07 00:35:43;;;;;;;2.35;1.70;;;16.40;61.30;;;;;;4143513;28;20033;-51
2023/05/07 00:38:05;;;;;;;2.00;1.42;;;16.40;61.30;;;;;;4141224;28;20132;-56
2023/05/07 00:40:28;;;;;;;2.10;1.20;;;16.30;61.30;;;;;;4143126;28;20057;-55
2023/05/07 00:42:56;;;;;;;3.10;1.63;;;16.30;61.30;;;;;;4137947;28;20045;-49
2023/05/07 00:45:19;;;;;;;1.58;1.15;;;16.30;61.30;;;;;;4141309;28;20049;-52
2023/05/07 00:47:42;;;;;;;1.85;1.20;;;16.30;61.30;;;;;;4143952;28;20076;-54
2023/05/07 00:50:05;;;;;;;2.97;1.67;;;16.30;61.30;;;;;;4137415;28;20120;-54
2023/05/07 00:52:29;;;;;;;2.45;1.50;;;16.30;61.30;;;;;;4143294;28;20038;-51
2023/05/07 00:54:52;;;;;;;2.85;1.42;;;16.30;61.30;;;;;;4130473;28;20125;-53
2023/05/07 00:57:15;;;;;;;1.90;1.20;;;16.30;61.30;;;;;;4140409;28;20049;-55
2023/05/07 00:59:39;;;;;;;1.70;1.20;;;16.30;61.30;;;;;;4141835;28;20052;-53
2023/05/07 01:02:01;;;;;;;1.75;1.20;;;16.30;61.30;;;;;;4143739;28;20293;-55
2023/05/07 01:04:24;;;;;;;1.92;1.20;;;16.30;61.30;;;;;;4126433;28;20065;-53
2023/05/07 01:06:47;;;;;;;1.63;1.15;;;16.30;61.30;;;;;;4143961;28;20050;-54
2023/05/07 01:09:09;;;;;;;2.25;1.33;;;16.20;61.20;;;;;;4136892;28;20034;-56
2023/05/07 01:11:32;;;;;;;2.42;1.40;;;16.20;61.20;;;;;;4142435;28;20041;-54
2023/05/07 01:13:55;;;;;;;1.58;1.10;;;16.20;61.20;;;;;;4137398;28;20040;-53
2023/05/07 01:16:17;;;;;;;2.47;1.13;;;16.30;61.30;;;;;;4145439;28;20044;-52
2023/05/07 01:18:40;;;;;;;1.30;1.02;;;16.30;61.20;;;;;;4131571;28;20045;-53
2023/05/07 01:21:05;;;;;;;1.05;0.90;;;16.30;61.20;;;;;;4132036;28;20042;-54
2023/05/07 01:23:29;;;;;;;4.22;1.10;;;16.20;61.20;;;;;;4136047;28;20045;-53
2023/05/07 01:25:55;;;;;;;2.80;1.20;;;16.20;61.20;;;;;;4132910;28;20058;-49
2023/05/07 01:28:17;;;;;;;2.05;1.27;;;16.20;61.20;;;;;;4120190;28;20038;-53
2023/05/07 01:30:47;;;;;;;1.90;1.13;;;16.20;61.10;;;;;;4143712;28;20125;-53
2023/05/07 01:33:13;;;;;;;1.73;1.13;;;16.20;61.10;;;;;;4126022;28;20040;-53
2023/05/07 01:35:40;;;;;;;2.17;1.38;;;16.20;61.10;;;;;;4143900;28;20042;-53
2023/05/07 01:38:05;;;;;;;1.08;0.98;;;16.20;61.10;;;;;;4142461;28;20042;-56
2023/05/07 01:40:28;;;;;;;1.63;1.20;;;16.20;61.10;;;;;;4141855;28;20495;-50
2023/05/07 01:42:51;;;;;;;1.67;0.82;;;16.20;61.20;;;;;;4133844;28;20532;-54
2023/05/07 01:45:14;;;;;;;1.52;1.08;;;16.20;61.20;;;;;;4143614;28;20045;-55
2023/05/07 01:47:37;;;;;;;1.45;1.05;;;16.20;61.20;;;;;;4141807;28;20045;-52
2023/05/07 01:50:00;;;;;;;0.88;0.80;;;16.20;61.20;;;;;;4136024;28;20049;-52
2023/05/07 01:52:24;;;;;;;1.85;1.20;;;16.20;61.20;;;;;;4139732;28;20034;-51
2023/05/07 01:54:46;;;;;;;1.33;1.00;;;16.20;61.20;;;;;;4123123;28;20064;-54
2023/05/07 01:57:09;;;;;;;2.03;0.95;;;16.20;61.20;;;;;;4139211;28;20100;-52
2023/05/07 01:59:32;;;;;;;1.65;0.90;;;16.20;61.20;;;;;;4139689;28;20038;-55
2023/05/07 02:01:54;;;;;;;1.85;1.10;;;16.20;61.00;;;;;;4142353;28;20120;-53
2023/05/07 02:04:17;;;;;;;1.42;0.93;;;16.20;61.00;;;;;;4143249;28;20133;-52
2023/05/07 02:06:39;;;;;;;1.35;1.00;;;16.20;61.00;;;;;;4125903;28;20038;-53
2023/05/07 02:09:02;;;;;;;0.82;0.73;;;16.20;61.00;;;;;;4134719;28;20034;-52
2023/05/07 02:11:25;;;;;;;2.13;1.00;;;16.20;61.00;;;;;;4120689;28;20125;-55
2023/05/07 02:13:47;;;;;;;2.20;1.23;;;16.30;61.20;;;;;;4128758;28;20042;-55
2023/05/07 02:16:10;;;;;;;1.50;0.93;;;16.30;61.20;;;;;;4137187;28;20033;-55
2023/05/07 02:18:33;;;;;;;2.42;1.17;;;16.30;61.20;;;;;;4137013;28;21102;-51
2023/05/07 02:20:55;;;;;;;1.15;0.85;;;16.30;61.20;;;;;;4132854;28;20038;-54
2023/05/07 02:23:18;;;;;;;1.67;1.00;;;16.30;61.30;;;;;;4138554;28;20406;-54
2023/05/07 02:25:40;;;;;;;1.95;1.00;;;16.30;61.50;;;;;;4136223;28;20549;-53
2023/05/07 02:28:03;;;;;;;1.17;0.80;;;16.30;61.50;;;;;;4140262;28;20040;-51
2023/05/07 02:30:25;;;;;;;1.63;1.13;;;16.30;61.50;;;;;;4139188;28;20053;-53
2023/05/07 02:32:48;;;;;;;1.10;0.80;;;16.30;61.70;;;;;;4141078;28;20034;-53
2023/05/07 02:35:11;;;;;;;2.17;1.42;;;16.40;62.30;;;;;;4136572;28;20053;-53
2023/05/07 02:37:33;;;;;;;2.08;1.23;;;16.30;62.10;;;;;;4138435;28;20034;-53
2023/05/07 02:39:55;;;;;;;1.60;1.25;;;16.40;62.30;;;;;;4133183;28;20050;-52
2023/05/07 02:42:18;;;;;;;2.88;1.13;;;16.40;62.20;;;;;;4130848;28;20117;-52
2023/05/07 02:44:40;;;;;;;1.30;1.05;;;16.40;62.70;;;;;;4140061;28;20100;-55
2023/05/07 02:47:03;;;;;;;3.72;1.27;;;16.40;62.70;;;;;;4139898;28;20481;-54
2023/05/07 02:49:25;;;;;;;2.47;1.40;;;16.30;63.20;;;;;;4134505;28;20105;-54
2023/05/07 02:51:48;;;;;;;2.20;1.40;;;16.40;63.00;;;;;;4138438;28;20034;-51
2023/05/07 02:54:10;;;;;;;2.88;1.58;;;16.30;63.00;;;;;;4141349;28;20524;-54
2023/05/07 02:56:32;;;;;;;1.85;1.40;;;16.40;62.80;;;;;;4123206;28;20050;-53
2023/05/07 02:58:55;;;;;;;2.72;1.50;;;16.40;62.60;;;;;;4137111;28;20196;-54
2023/05/07 03:01:17;;;;;;;2.75;1.50;;;16.30;62.80;;;;;;4138573;28;20034;-52
2023/05/07 03:03:40;;;;;;;2.45;1.35;;;16.30;62.50;;;;;;4138415;28;20125;-53
2023/05/07 03:06:03;;;;;;;1.88;1.52;;;16.30;62.40;;;;;;4132371;28;20050;-48
2023/05/07 03:08:25;;;;;;;2.33;1.17;;;16.30;63.00;;;;;;4140895;28;20049;-53
2023/05/07 03:10:48;;;;;;;1.40;1.00;;;16.30;63.00;;;;;;4122435;28;20280;-53
2023/05/07 03:13:10;;;;;;;1.88;1.23;;;16.30;62.30;;;;;;4140303;28;20041;-56
2023/05/07 03:15:33;;;;;;;1.17;0.93;;;16.30;62.30;;;;;;4141879;28;20042;-48
2023/05/07 03:17:55;;;;;;;1.60;1.40;;;16.30;62.30;;;;;;4144510;28;20486;-53
2023/05/07 03:20:18;;;;;;;2.00;1.23;;;16.30;62.30;;;;;;4141337;28;20112;-53
2023/05/07 03:22:40;;;;;;;2.05;1.20;;;16.30;62.30;;;;;;4142354;28;20077;-53
2023/05/07 03:25:04;;;;;;;1.63;1.20;;;16.20;62.30;;;;;;4139222;28;20056;-54
2023/05/07 03:27:26;;;;;;;1.47;1.00;;;16.30;62.30;;;;;;4140957;28;20118;-53
2023/05/07 03:29:49;;;;;;;2.60;1.30;;;16.20;62.20;;;;;;4124435;28;20393;-53
2023/05/07 03:32:12;;;;;;;1.75;1.35;;;16.30;62.30;;;;;;4141052;28;20041;-52
2023/05/07 03:34:34;;;;;;;1.48;1.20;;;16.30;62.00;;;;;;4135983;28;20529;-54
2023/05/07 03:36:56;;;;;;;1.08;0.90;;;16.30;61.80;;;;;;4138929;28;20048;-51
2023/05/07 03:39:19;;;;;;;1.65;1.20;;;16.40;62.30;;;;;;4121270;28;20041;-49
2023/05/07 03:41:41;;;;;;;1.80;1.10;;;16.40;61.60;;;;;;4125088;28;20105;-52
2023/05/07 03:44:04;;;;;;;1.40;1.00;;;16.50;61.50;;;;;;4129480;28;20520;-56
2023/05/07 03:46:28;;;;;;;1.95;1.00;;;16.50;61.50;;;;;;4140097;28;20506;-55
2023/05/07 03:48:50;;;;;;;3.22;1.10;;;16.50;61.50;;;;;;4139126;28;20038;-53
2023/05/07 03:51:12;;;;;;;1.75;1.15;;;16.60;61.50;;;;;;4142254;28;20351;-54
2023/05/07 03:53:35;;;;;;;0.82;0.70;;;16.60;61.40;;;;;;4145870;28;20552;-54
2023/05/07 03:55:57;;;;;;;1.67;1.10;;;16.70;61.30;;;;;;4140363;28;20030;-53
2023/05/07 03:58:20;;;;;;;2.08;1.50;;;16.70;61.20;;;;;;4141309;28;20121;-56
2023/05/07 04:00:42;;;;;;;2.00;1.20;;;16.70;61.20;;;;;;4127373;28;20128;-55
2023/05/07 04:03:05;;;;;;;1.98;1.25;;;16.80;61.20;;;;;;4140246;28;20422;-53
2023/05/07 04:05:27;;;;;;;2.88;1.55;;;16.80;61.20;;;;;;4143867;28;20049;-54
2023/05/07 04:07:50;;;;;;;1.83;1.35;;;16.80;61.00;;;;;;4138701;28;20026;-53
2023/05/07 04:10:13;;;;;;;2.67;1.50;;;16.80;60.80;;;;;;4143220;28;20574;-50
2023/05/07 04:12:35;;;;;;;2.33;1.23;;;16.90;60.60;;;;;;4127823;28;20034;-52
2023/05/07 04:14:58;;;;;;;2.15;1.40;;;16.90;60.30;;;;;;4143822;28;20038;-50
2023/05/07 04:17:20;;;;;;;1.10;1.00;;;17.00;60.10;;;;;;4141477;28;20495;-50
2023/05/07 04:19:45;;;;;;;2.45;1.33;;;17.10;60.00;;;;;;4143201;28;20044;-50
2023/05/07 04:22:07;;;;;;;1.30;1.20;;;17.10;60.00;;;;;;4128111;28;20483;-50
2023/05/07 04:24:35;;;;;;;1.77;1.40;;;17.10;59.90;;;;;;4143674;28;20128;-52
2023/05/07 04:26:58;;;;;;;2.08;1.30;;;17.10;59.80;;;;;;4142537;28;20046;-50
2023/05/07 04:29:21;;;;;;;2.85;1.40;;;17.20;59.80;;;;;;4145011;28;20084;-48
2023/05/07 04:31:46;;;;;;;1.73;1.35;;;17.20;59.70;;;;;;4144636;28;20482;-51
2023/05/07 04:34:08;;;;;;;1.60;1.40;;;17.30;59.60;;;;;;4148424;28;20037;-50
2023/05/07 04:36:33;;;;;;;3.95;1.35;;;17.30;59.50;;;;;;4142412;28;20088;-54
2023/05/07 04:38:55;;;;;;;1.75;1.30;;;17.40;59.40;;;;;;4135878;28;20370;-51
2023/05/07 04:41:18;;;;;;;1.85;1.15;;;17.40;59.10;;;;;;4142162;28;20042;-51
2023/05/07 04:43:41;;;;;;;2.22;1.13;;;17.50;58.90;;;;;;4139433;28;20035;-53
2023/05/07 04:46:04;;;;;;;1.73;1.17;;;17.60;58.80;;;;;;4138251;28;20039;-51
2023/05/07 04:48:27;;;;;;;1.08;0.80;;;17.60;58.50;;;;;;4138689;28;20038;-51
2023/05/07 04:50:50;;;;;;;3.33;1.17;;;17.60;58.30;;;;;;4137687;28;20046;-54
2023/05/07 04:53:13;;;;;;;1.70;1.10;;;17.60;58.00;;;;;;4142613;28;20138;-51
2023/05/07 04:55:36;;;;;;;1.48;1.00;;;17.60;58.10;;;;;;4127810;28;20041;-50
2023/05/07 04:58:00;;;;;;;2.17;1.23;;;17.70;58.00;;;;;;4143041;28;20034;-51
2023/05/07 05:00:23;;;;;;;1.83;1.00;;;17.70;57.80;;;;;;4128365;28;20046;-48
2023/05/07 05:02:45;;;;;;;1.20;0.90;;;17.80;57.50;;;;;;4135204;28;20061;-51
2023/05/07 05:05:08;;;;;;;1.05;0.90;;;17.80;56.40;;;;;;4142122;28;20050;-54
2023/05/07 05:07:31;;;;;;;1.40;0.95;;;17.80;56.50;;;;;;4140425;28;20048;-48
2023/05/07 05:09:54;;;;;;;0.93;0.75;;;17.80;56.70;;;;;;4124877;28;20073;-50
2023/05/07 05:12:16;;;;;;;0.70;0.70;;;17.90;56.90;;;;;;4137452;28;20037;-49
2023/05/07 05:14:38;;;;;;;1.00;0.77;;;17.90;56.70;;;;;;4140043;28;20478;-50
2023/05/07 05:17:01;;;;;;;1.23;0.80;;;17.80;56.80;;;;;;4137905;28;20041;-50
2023/05/07 05:19:23;;;;;;;2.15;0.90;;;17.70;57.00;;;;;;4137579;28;20038;-47
2023/05/07 05:21:46;;;;;;;1.58;1.00;;;17.70;57.20;;;;;;4142041;28;20072;-47
2023/05/07 05:24:09;;;;;;;1.00;0.90;;;17.60;57.30;;;;;;4139330;28;20036;-50
2023/05/07 05:26:31;;;;;;;0.75;0.73;;;17.50;58.00;;;;;;4141378;28;20056;-55
2023/05/07 05:28:53;;;;;;;2.30;1.08;;;17.50;57.40;;;;;;4142766;28;20103;-52
2023/05/07 05:31:17;;;;;;;1.05;0.90;;;17.50;57.30;;;;;;4136548;28;20442;-53
2023/05/07 05:33:39;;;;;;;1.47;0.77;;;17.50;57.40;;;;;;4136441;28;20033;-52
2023/05/07 05:36:02;;;;;;;1.67;1.08;;;17.40;57.40;;;;;;4135389;28;20694;-52
2023/05/07 05:38:25;;;;;;;0.82;0.82;;;17.40;57.40;;;;;;4136931;28;20462;-52
2023/05/07 05:40:48;;;;;;;1.37;0.97;;;17.40;57.40;;;;;;4133502;28;20054;-50
2023/05/07 05:43:10;;;;;;;1.48;0.88;;;17.30;57.50;;;;;;4136188;28;20375;-50
2023/05/07 05:45:33;;;;;;;2.38;0.90;;;17.30;57.40;;;;;;4133475;28;20105;-52
2023/05/07 05:47:57;;;;;;;1.88;0.98;;;17.30;57.50;;;;;;4135430;28;20310;-51
2023/05/07 05:50:19;;;;;;;1.92;1.10;;;17.20;57.30;;;;;;4130225;28;20065;-49
2023/05/07 05:52:42;;;;;;;2.38;1.10;;;17.20;57.30;;;;;;4135227;28;20060;-49
2023/05/07 05:55:05;;;;;;;1.27;0.80;;;17.20;56.90;;;;;;4119562;28;20038;-51
2023/05/07 05:57:27;;;;;;;0.73;0.73;;;17.20;57.10;;;;;;4138639;28;20096;-50
2023/05/07 05:59:49;;;;;;;1.75;1.15;;;17.10;57.10;;;;;;4131703;28;20278;-49
2023/05/07 06:02:12;;;;;;;1.20;0.98;;;17.10;56.90;;;;;;4133266;28;20077;-48
2023/05/07 06:04:34;;;;;;;0.90;0.80;;;17.20;57.00;;;;;;4135398;28;20064;-48
2023/05/07 06:06:57;;;;;;;1.60;0.80;;;17.20;57.10;;;;;;4136239;28;20749;-51
2023/05/07 06:09:20;;;;;;;0.90;0.80;;;17.20;57.10;;;;;;4137627;28;20068;-53
2023/05/07 06:11:42;;;;;;;2.05;0.98;;;17.10;57.10;;;;;;4136427;28;20049;-48
2023/05/07 06:14:04;;;;;;;1.08;0.98;;;17.20;57.10;;;;;;4140118;28;20030;-50
2023/05/07 06:16:27;;;;;;;2.30;0.90;;;17.20;57.00;;;;;;4139509;28;20049;-52
2023/05/07 06:18:49;;;;;;;1.77;1.20;;;17.20;57.00;;;;;;4140074;28;20088;-49
2023/05/07 06:21:13;;;;;;;1.40;0.93;;;17.20;56.80;;;;;;4125783;28;20465;-48
2023/05/07 06:23:36;;;;;;;3.60;1.85;;;17.20;56.60;;;;;;4136562;28;20043;-50
2023/05/07 06:25:58;;;;;;;3.65;2.60;;;17.30;56.60;;;;;;4138497;28;20105;-50
2023/05/07 06:28:21;;;;;;;6.93;4.03;;;17.30;56.50;;;;;;4139955;28;20414;-56
2023/05/07 06:30:43;;;;;;;6.70;4.68;;;17.30;56.40;;;;;;4140209;28;20046;-54
2023/05/07 06:33:06;;;;;;;9.88;7.25;;;17.40;56.50;;;;;;4139638;28;20407;-52
2023/05/07 06:35:28;;;;;;;16.33;14.63;;;17.40;56.40;;;;;;4138109;28;20049;-49
2023/05/07 06:37:50;;;;;;;27.95;20.55;;;17.30;56.40;;;;;;4140329;28;20650;-52
2023/05/07 06:40:13;;;;;;;28.35;24.75;;;17.40;56.20;;;;;;4141318;28;20050;-51
2023/05/07 06:42:37;;;;;;;30.55;26.08;;;17.70;55.60;;;;;;4141825;28;20072;-52
2023/05/07 06:44:59;;;;;;;33.13;27.52;;;18.60;53.30;;;;;;4125799;28;20056;-53
2023/05/07 06:47:22;;;;;;;31.40;28.27;;;19.40;51.00;;;;;;4142245;28;20120;-49
2023/05/07 06:49:44;;;;;;;33.35;29.85;;;20.00;49.60;;;;;;4140266;28;20042;-56
2023/05/07 06:52:07;;;;;;;34.40;28.85;;;20.30;48.70;;;;;;4141295;28;20506;-55
2023/05/07 06:54:30;;;;;;;32.95;29.27;;;20.00;49.00;;;;;;4145657;28;20030;-54
2023/05/07 06:56:52;;;;;;;32.33;28.90;;;19.30;50.40;;;;;;4145978;28;20045;-48
2023/05/07 06:59:15;;;;;;;32.05;28.65;;;18.70;51.70;;;;;;4142912;28;20092;-53
2023/05/07 07:01:37;;;;;;;31.63;27.77;;;18.30;52.90;;;;;;4143517;28;20042;-51
2023/05/07 07:04:00;;;;;;;30.38;26.80;;;18.00;53.50;;;;;;4140400;28;20126;-55
2023/05/07 07:06:22;;;;;;;28.60;25.25;;;17.80;54.10;;;;;;4145060;28;20077;-54
2023/05/07 07:08:45;;;;;;;27.63;24.70;;;17.60;54.60;;;;;;4144460;28;20034;-53
2023/05/07 07:11:10;;;;;;;27.92;23.88;;;17.40;54.90;;;;;;4141352;28;20038;-49
2023/05/07 07:13:32;;;;;;;27.20;24.30;;;17.30;55.20;;;;;;4126171;28;20030;-53
2023/05/07 07:15:55;;;;;;;26.55;23.92;;;17.30;56.10;;;;;;4139488;28;20052;-53
2023/05/07 07:18:17;;;;;;;25.27;22.58;;;17.20;55.60;;;;;;4143621;28;20418;-55
2023/05/07 07:20:40;;;;;;;24.17;21.60;;;17.10;55.70;;;;;;4144014;28;20038;-50
2023/05/07 07:23:02;;;;;;;22.40;20.10;;;17.00;55.70;;;;;;4143155;28;20120;-52
2023/05/07 07:25:25;;;;;;;22.88;19.92;;;17.00;56.10;;;;;;4135859;28;20141;-51
2023/05/07 07:27:47;;;;;;;22.15;19.23;;;16.90;56.00;;;;;;4139671;28;20560;-49
2023/05/07 07:30:10;;;;;;;20.13;18.13;;;17.00;56.20;;;;;;4136740;28;20037;-51
2023/05/07 07:32:33;;;;;;;20.05;18.08;;;16.90;56.20;;;;;;4134355;28;20039;-53
2023/05/07 07:34:55;;;;;;;20.85;17.05;;;16.90;56.20;;;;;;4138136;28;20069;-48
2023/05/07 07:37:18;;;;;;;18.92;17.00;;;16.80;56.20;;;;;;4141283;28;20065;-50
2023/05/07 07:39:40;;;;;;;18.48;16.35;;;16.80;56.20;;;;;;4133534;28;20104;-49
2023/05/07 07:42:03;;;;;;;16.60;14.80;;;16.80;56.40;;;;;;4120692;28;20038;-46
2023/05/07 07:44:26;;;;;;;18.73;15.10;;;16.70;56.30;;;;;;4133847;28;20038;-47
2023/05/07 07:46:48;;;;;;;15.07;13.40;;;16.70;56.40;;;;;;4134133;28;20050;-49
2023/05/07 07:49:11;;;;;;;15.63;13.57;;;16.70;56.30;;;;;;4136760;28;20433;-52
2023/05/07 07:51:33;;;;;;;14.70;13.05;;;16.60;56.30;;;;;;4122285;28;20117;-53
2023/05/07 07:53:57;;;;;;;14.27;12.85;;;16.60;56.40;;;;;;4131906;28;20368;-46
2023/05/07 07:56:20;;;;;;;13.95;12.27;;;16.60;56.50;;;;;;4111786;28;20487;-50
2023/05/07 07:58:42;;;;;;;12.88;11.57;;;16.60;56.60;;;;;;4120721;28;20437;-49
2023/05/07 08:01:05;;;;;;;12.18;10.98;;;16.60;56.60;;;;;;4133888;28;20092;-52
2023/05/07 08:03:28;;;;;;;11.77;10.43;;;16.50;56.60;;;;;;4128498;28;20121;-49
2023/05/07 08:05:51;;;;;;;12.38;10.52;;;16.50;56.60;;;;;;4132206;28;20412;-53
2023/05/07 08:08:13;;;;;;;10.55;9.27;;;16.50;56.70;;;;;;4129693;28;20046;-48
2023/05/07 08:10:38;;;;;;;10.18;9.18;;;16.50;56.70;;;;;;4119634;28;20042;-49
2023/05/07 08:13:01;;;;;;;10.02;8.70;;;16.50;56.70;;;;;;4133973;28;20041;-47
2023/05/07 08:15:23;;;;;;;9.88;8.88;;;16.50;56.90;;;;;;4127616;28;20283;-48
2023/05/07 08:17:46;;;;;;;9.80;8.75;;;16.40;56.90;;;;;;4133680;28;20105;-48
2023/05/07 08:20:09;;;;;;;9.05;8.15;;;16.40;57.00;;;;;;4130500;28;20466;-52
2023/05/07 08:22:31;;;;;;;9.85;8.25;;;16.40;56.90;;;;;;4128208;28;20107;-52
2023/05/07 08:24:53;;;;;;;8.88;7.97;;;16.40;56.80;;;;;;4134303;28;20046;-49
2023/05/07 08:27:16;;;;;;;8.38;7.28;;;16.30;57.00;;;;;;4132679;28;20789;-50
2023/05/07 08:29:39;;;;;;;9.20;7.60;;;16.40;57.10;;;;;;4130774;28;20409;-49
2023/05/07 08:32:01;;;;;;;7.75;6.95;;;16.30;57.10;;;;;;4133379;28;20038;-52
2023/05/07 08:34:24;;;;;;;8.20;6.40;;;16.30;57.00;;;;;;4136012;28;20046;-53
2023/05/07 08:36:48;;;;;;;8.98;7.03;;;16.30;57.20;;;;;;4131780;28;20457;-54
2023/05/07 08:39:10;;;;;;;7.35;6.30;;;16.30;57.20;;;;;;4134148;28;20069;-49
2023/05/07 08:41:33;;;;;;;7.25;6.38;;;16.30;57.20;;;;;;4135113;28;20157;-50
2023/05/07 08:43:59;;;;;;;6.80;5.65;;;16.30;57.30;;;;;;4135710;28;20414;-48
2023/05/07 08:46:23;;;;;;;6.10;5.35;;;16.20;57.20;;;;;;4139172;28;20062;-54
2023/05/07 08:48:45;;;;;;;7.72;5.78;;;16.20;57.20;;;;;;4142225;28;20498;-51
2023/05/07 08:51:09;;;;;;;6.18;5.07;;;16.20;57.30;;;;;;4140348;28;20112;-54
2023/05/07 08:53:32;;;;;;;6.70;5.25;;;16.20;57.10;;;;;;4142368;28;20128;-52
2023/05/07 08:55:55;;;;;;;5.22;4.38;;;16.20;57.00;;;;;;4124653;28;20073;-52
2023/05/07 08:58:17;;;;;;;5.93;4.72;;;16.20;57.30;;;;;;4144114;28;20449;-52
2023/05/07 09:00:42;;;;;;;5.32;4.30;;;16.20;57.30;;;;;;4141137;28;20041;-52
2023/05/07 09:03:04;;;;;;;5.13;4.13;;;16.10;57.30;;;;;;4135631;28;20038;-53
2023/05/07 09:05:27;;;;;;;4.88;4.15;;;16.10;57.00;;;;;;4133279;28;20084;-48
2023/05/07 09:07:50;;;;;;;5.22;3.80;;;16.10;57.00;;;;;;4119023;28;20474;-47
2023/05/07 09:10:13;;;;;;;4.32;3.38;;;16.10;57.00;;;;;;4114082;28;20100;-50
2023/05/07 09:12:36;;;;;;;4.88;3.70;;;16.10;56.90;;;;;;4134214;28;20494;-51
2023/05/07 09:14:59;;;;;;;4.93;3.65;;;16.10;57.30;;;;;;4129979;28;20450;-48
2023/05/07 09:17:22;;;;;;;5.35;3.92;;;16.10;57.40;;;;;;4132493;28;20140;-48
2023/05/07 09:19:48;;;;;;;4.75;3.58;;;16.10;57.20;;;;;;4118076;28;20065;-49
2023/05/07 09:22:10;;;;;;;4.55;3.45;;;16.00;57.20;;;;;;4133420;28;20550;-51
2023/05/07 09:24:37;;;;;;;5.03;3.67;;;16.00;57.20;;;;;;4135170;28;20073;-54
2023/05/07 09:27:01;;;;;;;4.55;3.55;;;16.00;57.30;;;;;;4134441;28;20591;-50
2023/05/07 09:29:23;;;;;;;4.63;3.58;;;16.00;57.20;;;;;;4133609;28;20026;-50
2023/05/07 09:31:46;;;;;;;3.70;3.10;;;16.00;57.20;;;;;;4139139;28;20136;-53
2023/05/07 09:34:08;;;;;;;3.72;3.20;;;16.00;57.20;;;;;;4123934;28;20042;-48
2023/05/07 09:36:32;;;;;;;4.60;3.00;;;16.00;57.20;;;;;;4137672;28;20045;-52
2023/05/07 09:38:56;;;;;;;4.22;3.13;;;15.90;57.30;;;;;;4140300;28;20541;-49
2023/05/07 09:41:19;;;;;;;4.65;2.88;;;15.90;57.20;;;;;;4141611;28;20418;-53
2023/05/07 09:43:41;;;;;;;3.95;2.97;;;15.90;57.40;;;;;;4139607;28;20033;-50
2023/05/07 09:46:16;;;;;;;3.20;2.42;;;15.90;57.30;;;;;;4139214;28;20046;-48
2023/05/07 09:48:42;;;;;;;;;;;15.90;57.20;;;;;;4139076;28;20413;-50
2023/05/07 09:51:26;;;;;;;3.30;2.50;;;15.90;57.60;;;;;;4139302;28;19913;-50
2023/05/07 09:53:50;;;;;;;3.10;2.25;;;15.90;57.30;;;;;;4139769;28;20469;-49
2023/05/07 09:56:17;;;;;;;2.88;2.33;;;15.90;57.30;;;;;;4142177;28;20473;-47
2023/05/07 09:58:42;;;;;;;2.67;2.20;;;15.80;57.10;;;;;;4124207;28;20287;-50
2023/05/07 10:01:05;;;;;;;2.78;2.22;;;15.80;57.30;;;;;;4137960;28;20482;-50
2023/05/07 10:03:31;;;;;;;2.65;2.25;;;15.80;57.20;;;;;;4139467;28;20139;-51
2023/05/07 10:05:55;;;;;;;2.80;2.20;;;15.80;57.30;;;;;;4141937;28;20735;-54
2023/05/07 10:08:19;;;;;;;2.67;2.10;;;15.80;57.40;;;;;;4121046;28;20403;-50
2023/05/07 10:10:42;;;;;;;2.50;1.90;;;15.80;57.20;;;;;;4140727;28;20387;-49
2023/05/07 10:13:09;;;;;;;2.78;2.10;;;15.80;57.30;;;;;;4138977;28;20033;-48
2023/05/07 10:15:32;;;;;;;2.60;2.05;;;15.80;57.40;;;;;;4140901;28;20247;-51
2023/05/07 10:17:55;;;;;;;2.80;2.08;;;15.70;57.20;;;;;;4141146;28;20044;-47
2023/05/07 10:20:18;;;;;;;2.60;1.83;;;15.70;57.20;;;;;;4141727;28;20569;-49
2023/05/07 10:22:46;;;;;;;2.60;1.90;;;15.80;57.40;;;;;;4134690;28;20478;-49
2023/05/07 10:25:18;;;;;;;2.17;1.70;;;15.70;57.40;;;;;;4142672;28;20060;-51
2023/05/07 10:27:42;;;;;;;2.90;1.88;;;15.70;57.30;;;;;;4139789;28;20076;-49
2023/05/07 10:30:27;;;;;;;2.33;1.63;;;15.70;57.30;;;;;;4123938;28;20049;-50
2023/05/07 10:32:51;;;;;;;2.10;1.77;;;15.70;57.40;;;;;;4141140;28;20061;-50
2023/05/07 10:35:26;;;;;;;2.10;1.70;;;15.70;57.60;;;;;;4142833;28;20085;-47
2023/05/07 10:37:49;;;;;;;1.92;1.70;;;15.70;57.50;;;;;;4138589;28;20553;-51
2023/05/07 10:40:13;;;;;;;1.75;1.50;;;15.60;57.30;;;;;;4141894;28;20058;-49
2023/05/07 10:42:35;;;;;;;1.98;1.70;;;15.60;57.40;;;;;;4142744;28;20510;-48
2023/05/07 10:44:58;;;;;;;1.67;1.40;;;15.60;57.30;;;;;;4141899;28;20042;-48
2023/05/07 10:47:20;;;;;;;1.80;1.45;;;15.60;57.40;;;;;;4142624;28;20036;-48
2023/05/07 10:49:45;;;;;;;1.65;1.30;;;15.60;57.40;;;;;;4138972;28;20065;-46
2023/05/07 10:52:19;;;;;;;1.65;1.25;;;15.60;57.50;;;;;;4142290;28;20547;-47
2023/05/07 10:54:43;;;;;;;1.60;1.50;;;15.60;57.50;;;;;;4140718;28;20038;-51
2023/05/07 10:57:30;;;;;;;1.77;1.50;;;15.50;57.40;;;;;;4142302;28;20042;-50
2023/05/07 10:59:53;;;;;;;2.75;2.35;;;15.50;57.10;;;;;;4138796;28;20482;-56
2023/05/07 11:02:16;;;;;;;4.22;1.45;;;15.60;57.30;;;;;;4139128;28;20427;-58
2023/05/07 11:04:38;;;;;;;3.83;1.48;;;15.60;57.40;;;;;;4141261;28;20037;-57
2023/05/07 11:07:10;;;;;;;3.55;1.60;;;15.60;57.40;;;;;;4135741;28;20050;-60
2023/05/07 11:09:55;;;;;;;3.20;1.23;;;15.50;57.50;;;;;;4136272;28;20073;-59
2023/05/07 11:12:38;;;;;;;4.40;1.40;;;15.60;57.40;;;;;;4142672;28;20045;-60
2023/05/07 11:15:00;;;;;;;2.85;1.40;;;15.60;57.60;;;;;;4140564;28;20034;-62
2023/05/07 11:17:23;;;;;;;4.05;1.50;;;15.60;57.70;;;;;;4136007;28;20045;-62
2023/05/07 11:19:53;;;;;;;3.72;1.30;;;15.60;57.70;;;;;;4141831;28;20367;-60
2023/05/07 11:22:41;;;;;;;2.03;1.40;;;15.60;57.90;;;;;;4137366;28;20072;-59
2023/05/07 11:25:06;;;;;;;6.93;1.77;;;15.60;57.90;;;;;;4134728;28;20517;-59
2023/05/07 11:27:29;;;;;;;4.88;1.15;;;15.60;58.30;;;;;;4132699;28;20127;-59
2023/05/07 11:29:51;;;;;;;8.05;1.63;;;15.60;57.90;;;;;;4138682;28;20050;-52
2023/05/07 11:32:14;;;;;;;2.67;1.27;;;15.60;58.00;;;;;;4142786;28;20402;-60
2023/05/07 11:34:37;;;;;;;5.40;1.67;;;15.60;58.30;;;;;;4145136;28;20033;-57
2023/05/07 11:37:00;;;;;;;2.13;1.30;;;15.60;58.30;;;;;;4144350;28;20034;-60
2023/05/07 11:39:27;;;;;;;2.92;1.08;;;15.60;58.30;;;;;;4135890;28;20034;-62
2023/05/07 11:41:49;;;;;;;1.65;1.00;;;15.60;58.20;;;;;;4144105;28;20046;-61
2023/05/07 11:44:11;;;;;;;1.80;0.80;;;15.50;58.30;;;;;;4126453;28;20045;-58
2023/05/07 11:46:34;;;;;;;1.52;0.90;;;15.50;58.20;;;;;;4141519;28;20050;-63
2023/05/07 11:48:57;;;;;;;1.27;0.90;;;15.50;58.30;;;;;;4142502;28;20038;-58
2023/05/07 11:51:22;;;;;;;10.02;1.88;;;15.60;58.50;;;;;;4127860;28;20041;-58
2023/05/07 11:53:45;;;;;;;2.53;1.17;;;15.60;58.70;;;;;;4142861;28;20030;-60
2023/05/07 11:56:16;;;;;;;2.08;1.17;;;15.50;58.80;;;;;;4137331;28;20425;-60
2023/05/07 11:58:40;;;;;;;2.28;0.73;;;15.50;58.60;;;;;;4143747;28;20065;-59
2023/05/07 12:01:02;;;;;;;3.37;1.60;;;15.50;58.50;;;;;;4127408;28;20539;-63
2023/05/07 12:03:25;;;;;;;1.90;0.88;;;15.50;58.50;;;;;;4142827;28;20287;-51
2023/05/07 12:05:48;;;;;;;1.70;0.90;;;15.50;58.70;;;;;;4144994;28;20509;-55
2023/05/07 12:08:18;;;;;;;3.45;0.75;;;15.50;58.70;;;;;;4138479;28;20030;-54
2023/05/07 12:10:44;;;;;;;3.70;0.90;;;15.50;58.70;;;;;;4142426;28;20498;-53
2023/05/07 12:13:15;;;;;;;3.13;0.93;;;15.50;58.60;;;;;;4138605;28;20049;-55
2023/05/07 12:15:38;;;;;;;0.93;0.70;;;15.40;58.50;;;;;;4144258;28;20037;-53
2023/05/07 12:18:01;;;;;;;10.35;2.20;;;15.40;58.40;;;;;;4141787;28;20033;-61
2023/05/07 12:20:24;;;;;;;14.63;1.98;;;15.50;59.20;;;;;;4140745;28;20506;-60
2023/05/07 12:22:47;;;;;;;5.60;1.02;;;15.40;59.30;;;;;;4121863;28;20504;-55
2023/05/07 12:25:10;;;;;;;5.45;1.10;;;15.40;59.50;;;;;;4139488;28;20099;-60